Cosgrave, Nevada
Current Conditions -  °F | °C
As of 12:56 AM on Tuesday 21 Oct 2014 (Local Time) from KWMC Reporting Station
Overcast Overcast  
Wind Chill: 51°   Ceiling: 5000
Heat Index: 51°   Visibility: 10mi
Dew Point: 38°   Wind: 6mph
Humidity: 61%   Direction: 270°W
Pressure: 29.96"   Gusts: NA
Location:  41.1353°N, 118.186°W
Report Text: KWMC 210756Z AUTO 27005KT 10SM FEW038 BKN050 OVC085 11/03 A2996 RMK AO2 PK WND 24031/0711 SLP113 T01060033 402501022
Loading
Personal Weather Stations






























Interactive Weather Map
Tropical Storm Tracking
New forecast layout! Learn more

10-Day Weather Forecast

Advertisements
Track Severe Weather on mobile